NCAR-RAP Real-Time Weather Data

Output produced by METARs form (20 February 2019  17:51 UTC)
found at http://weather.rap.ucar.edu/surface/
 
RJOR 201200Z 31020KT 9999 FEW020 SCT030 BKN040 09/03 Q1021
RJOR 201100Z 31016KT 9999 FEW010 SCT020 BKN030 08/05 Q1021
RJOR 201000Z 26014KT 220V290 9999 -SHRA FEW015 SCT020 BKN030 08/03 Q1020
RJOR 200900Z 25014KT 9999 VCSH FEW020 SCT045 BKN060 09/02 Q1020
RJOR 200800Z 26014G25KT 9999 FEW020 SCT030 BKN060 10/04 Q1019
RJOR 200700Z 27018G29KT 9999 FEW020 SCT050 BKN060 10/04 Q1019
RJOR 200600Z 27019KT 9999 FEW025 BKN060 11/05 Q1018
RJOR 200500Z 27022KT 9999 FEW015 BKN060 12/07 Q1018
RJOR 200400Z 31007KT 9999 -SHRA FEW008 SCT020 BKN030 10/09 Q1018
RJOR 200300Z 25003KT 200V300 9999 -SHRA FEW003 SCT010 BKN020 10/08 Q1018
RJOR 200222Z 33006KT 5000 -SHRA BR FEW005 SCT008 BKN015 10/08 Q1018 RMK 1ST005 3ST008 5CU015 A3008 9999NW-N
RJOR 200200Z 32007KT 4000 -SHRA BR FEW005 SCT008 BKN015 09/08 Q1018
RJOR 200100Z 36006KT 7000 -SHRA FEW005 SCT008 BKN015 09/08 Q1018
RJOR 200000Z 36010KT 8000 -SHRA FEW004 SCT008 BKN015 10/08 Q1018
RJOR 192310Z 34011KT 5000 -SHRA BR FEW004 SCT008 BKN015 10/09 Q1017 RMK 1ST004 3ST008 5CU015 A3006
RJOR 192300Z 34011KT 3000 -SHRA BR FEW004 SCT008 BKN015 10/09 Q1017
RJOR 192229Z 33014KT 5000 -SHRA BR FEW004 SCT008 BKN015 10/09 Q1017 RMK 1ST004 3ST008 5CU015 A3005
RJOR 192214Z 32011KT 3000 SHRA BR FEW004 SCT008 BKN015 10/09 Q1017 RMK 1ST004 3ST008 5CU015 A3005
RJOR 192200Z 29008KT 3000 -SHRA BR FEW004 SCT008 BKN015 10/09 Q1017
RJOR 192130Z 28007KT 8000 -SHRA FEW008 SCT010 BKN020 10/09 Q1017
RJOR 192110Z 29007KT 240V310 7000 -SHRA FEW008 SCT010 BKN020 10/09 Q1016 RMK 1ST008 3CU010 5CU020 A3002
RJOR 191200Z 26011KT 9999 FEW004 SCT010 BKN020 13/12 Q1013
RJOR 191100Z 28011KT 9999 FEW004 SCT008 BKN015 12/11 Q1012
RJOR 191000Z 28012KT 9999 FEW005 SCT010 BKN030 13/11 Q1011
RJOR 190900Z 13012KT 9999 FEW005 SCT025 BKN050 15/11 Q1009
RJOR 190800Z 16014KT 130V190 9999 FEW008 SCT030 BKN050 17/11 Q1009
RJOR 190700Z 18015G29KT 140V210 9999 FEW002 SCT030 BKN100 15/10 Q1008
RJOR 190600Z 18010KT 9999 -SHRA FEW002 SCT035 BKN080 15/10 Q1009
RJOR 190500Z 18013KT 150V210 9999 -SHRA FEW015 SCT030 BKN070 14/09 Q1011
RJOR 190400Z 15011G22KT 080V200 9999 -SHRA FEW004 SCT025 BKN070 13/09 Q1011
RJOR 190300Z 15008KT 120V190 9999 -RA FEW025 SCT050 BKN080 12/08 Q1014
RJOR 190200Z 14011KT 100V180 9999 -RA FEW005 SCT060 BKN070 12/09 Q1016
RJOR 190100Z 15007KT 120V190 9999 -RA FEW020 SCT060 OVC080 11/08 Q1017
RJOR 190000Z 10010KT 9999 -RA FEW020 BKN060 OVC090 08/06 Q1018
RJOR 182300Z 11008KT 9999 -RA FEW020 SCT045 BKN060 06/05 Q1020
RJOR 182200Z 13010KT 9999 -RA FEW020 SCT045 BKN060 06/04 Q1020
RJOR 182130Z 13013KT 9999 -RA FEW010 SCT045 BKN050 07/04 Q1021
RJOR 182110Z 14011KT 9999 -RA FEW010 SCT045 BKN050 07/03 Q1021 RMK 1ST010 3SC045 5SC050 A3017
RJOR 181200Z 15007KT CAVOK 07/00 Q1025
RJOR 181100Z 16004KT 9999 FEW040 SCT100 BKN150 06/01 Q1025
RJOR 181000Z 18006KT 9999 FEW050 SCT150 BKN180 06/02 Q1025
RJOR 180900Z 10004KT 070V130 9999 FEW050 SCT180 BKN/// 09/00 Q1024
RJOR 180800Z 05009KT 9999 FEW050 BKN/// 10/00 Q1024
RJOR 180700Z 05010KT 9999 FEW060 BKN/// 09/M00 Q1024
RJOR 180600Z 04010KT 9999 FEW060 BKN/// 10/00 Q1024